createdAt,value
2019-04-23T00:00:20.424Z,1000.11
2019-04-23T00:01:29.094Z,1000.07
2019-04-23T00:02:31.626Z,1000.11
2019-04-23T00:03:38.890Z,1000.11
2019-04-23T00:04:46.905Z,1000.04
2019-04-23T00:05:57.938Z,1000.04
2019-04-23T00:07:12.871Z,1000.01
2019-04-23T00:08:11.409Z,999.96
2019-04-23T00:09:22.388Z,1000.03
2019-04-23T00:10:26.078Z,1000.02
2019-04-23T00:12:44.819Z,1000.00
2019-04-23T00:13:45.534Z,999.96
2019-04-23T00:14:54.791Z,1000.00
2019-04-23T00:16:00.499Z,999.90
2019-04-23T00:16:57.840Z,999.84
2019-04-23T00:18:10.176Z,999.91
2019-04-23T00:19:11.657Z,999.91
2019-04-23T00:20:20.477Z,999.87
2019-04-23T00:21:31.898Z,999.80
2019-04-23T00:22:39.804Z,999.83
2019-04-23T00:23:44.677Z,999.82
2019-04-23T00:25:20.576Z,999.79
2019-04-23T00:25:52.595Z,999.80
2019-04-23T00:27:06.591Z,999.77
2019-04-23T00:28:16.181Z,999.75
2019-04-23T00:29:18.961Z,999.73
2019-04-23T00:30:18.815Z,999.72
2019-04-23T00:31:46.413Z,999.74
2019-04-23T00:32:36.306Z,999.63
2019-04-23T00:33:36.152Z,999.64
2019-04-23T00:34:49.624Z,999.66
2019-04-23T00:35:49.864Z,999.67
2019-04-23T00:37:01.664Z,999.65
2019-04-23T00:38:10.490Z,999.66
2019-04-23T00:39:08.228Z,999.58
2019-04-23T00:40:23.423Z,999.58
2019-04-23T00:41:24.971Z,999.59
2019-04-23T00:42:36.606Z,999.61
2019-04-23T00:43:43.257Z,999.56
2019-04-23T00:44:47.888Z,999.61
2019-04-23T00:45:53.301Z,999.58
2019-04-23T00:46:54.696Z,999.58
2019-04-23T00:48:02.015Z,999.59
2019-04-23T00:49:12.127Z,999.58
2019-04-23T00:51:22.341Z,999.49
2019-04-23T00:52:33.524Z,999.47
2019-04-23T00:53:34.212Z,999.49
2019-04-23T00:55:47.715Z,999.47
2019-04-23T00:58:10.408Z,999.53
2019-04-23T00:59:05.598Z,999.46
2019-04-23T01:01:31.931Z,999.50
2019-04-23T01:02:33.051Z,999.50
2019-04-23T01:03:33.802Z,999.48
2019-04-23T01:05:50.271Z,999.44
2019-04-23T01:06:58.305Z,999.45
2019-04-23T01:08:05.101Z,999.48
2019-04-23T01:09:22.225Z,999.46
2019-04-23T01:10:16.977Z,999.48
2019-04-23T01:11:20.027Z,999.51
2019-04-23T01:12:31.638Z,999.39
2019-04-23T01:13:39.378Z,999.46
2019-04-23T01:14:41.043Z,999.40
2019-04-23T01:15:46.705Z,999.41
2019-04-23T01:16:49.513Z,999.44
2019-04-23T01:18:02.160Z,999.35
2019-04-23T01:19:07.231Z,999.36
2019-04-23T01:20:08.225Z,999.35
2019-04-23T01:20:58.562Z,999.29
2019-04-23T01:22:00.144Z,999.31
2019-04-23T01:23:01.192Z,999.24
2019-04-23T01:24:06.232Z,999.23
2019-04-23T01:25:21.257Z,999.29
2019-04-23T01:26:39.952Z,999.29
2019-04-23T01:27:51.471Z,999.32
2019-04-23T01:28:55.930Z,999.29
2019-04-23T01:30:08.451Z,999.24
2019-04-23T01:31:08.887Z,999.27
2019-04-23T01:32:17.552Z,999.28
2019-04-23T01:33:29.180Z,999.29
2019-04-23T01:34:36.604Z,999.31
2019-04-23T01:35:43.065Z,999.32
2019-04-23T01:36:35.668Z,999.24
2019-04-23T01:37:58.108Z,999.31
2019-04-23T01:39:00.417Z,999.24
2019-04-23T01:40:07.694Z,999.26
2019-04-23T01:41:09.723Z,999.26
2019-04-23T01:42:22.425Z,999.24
2019-04-23T01:43:23.571Z,999.25
2019-04-23T01:44:31.267Z,999.21
2019-04-23T01:46:45.868Z,999.13
2019-04-23T01:47:51.842Z,999.16
2019-04-23T01:49:02.137Z,999.08
2019-04-23T01:50:09.958Z,999.11
2019-04-23T01:51:09.588Z,999.08
2019-04-23T01:52:24.882Z,999.09
2019-04-23T01:53:31.814Z,999.10
2019-04-23T01:54:30.493Z,999.07
2019-04-23T01:55:43.750Z,999.05
2019-04-23T01:56:40.001Z,999.09
2019-04-23T01:59:00.274Z,999.03
2019-04-23T02:00:11.652Z,999.12
2019-04-23T02:01:11.582Z,999.05
2019-04-23T02:02:19.350Z,999.03
2019-04-23T02:03:21.440Z,999.10
2019-04-23T02:04:32.093Z,999.12
2019-04-23T02:06:44.906Z,999.00
2019-04-23T02:09:00.538Z,999.08
2019-04-23T02:10:11.626Z,999.01
2019-04-23T02:11:10.528Z,999.02
2019-04-23T02:12:21.602Z,999.04
2019-04-23T02:13:28.604Z,999.00
2019-04-23T02:14:28.086Z,999.04
2019-04-23T02:15:38.111Z,999.04
2019-04-23T02:16:55.117Z,998.97
2019-04-23T02:17:53.724Z,998.92
2019-04-23T02:19:04.486Z,998.95
2019-04-23T02:20:09.191Z,998.95
2019-04-23T02:21:05.624Z,998.85
2019-04-23T02:22:21.886Z,998.89
2019-04-23T02:24:39.742Z,998.90
2019-04-23T02:27:58.231Z,998.82
2019-04-23T02:30:15.129Z,998.88
2019-04-23T02:32:37.755Z,998.87
2019-04-23T02:34:40.618Z,998.86
2019-04-23T02:35:52.387Z,998.81
2019-04-23T02:41:31.735Z,998.88
2019-04-23T02:42:40.922Z,998.84
2019-04-23T02:43:22.001Z,998.80
2019-04-23T02:45:50.349Z,998.65
2019-04-23T02:46:51.707Z,998.70
2019-04-23T02:48:03.391Z,998.74
2019-04-23T02:50:20.061Z,998.69
2019-04-23T02:51:10.955Z,998.67
2019-04-23T02:52:34.387Z,998.66
2019-04-23T02:55:43.053Z,998.65
2019-04-23T02:57:54.293Z,998.60
2019-04-23T02:59:08.095Z,998.61
2019-04-23T03:01:21.893Z,998.60
2019-04-23T03:04:37.194Z,998.45
2019-04-23T03:07:54.139Z,998.51
2019-04-23T03:10:03.226Z,998.49
2019-04-23T03:11:27.577Z,998.47
2019-04-23T03:18:04.854Z,998.39
2019-04-23T03:19:08.307Z,998.32
2019-04-23T03:20:07.929Z,998.41
2019-04-23T03:25:40.078Z,998.32
2019-04-23T03:27:11.020Z,998.35
2019-04-23T03:27:40.909Z,998.32
2019-04-23T03:30:08.183Z,998.29
2019-04-23T03:32:48.224Z,998.32
2019-04-23T03:35:19.459Z,998.26
2019-04-23T03:36:18.407Z,998.36
2019-04-23T03:37:09.330Z,998.27
2019-04-23T03:40:03.809Z,998.34
2019-04-23T03:41:17.247Z,998.32
2019-04-23T03:43:25.455Z,998.29
2019-04-23T03:44:30.010Z,998.34
2019-04-23T03:47:48.527Z,998.34
2019-04-23T03:48:53.220Z,998.37
2019-04-23T03:50:19.733Z,998.31
2019-04-23T03:51:11.640Z,998.33
2019-04-23T03:53:29.893Z,998.34
2019-04-23T03:54:31.982Z,998.33
2019-04-23T03:55:37.119Z,998.35
2019-04-23T03:56:57.140Z,998.33
2019-04-23T03:57:37.975Z,998.34
2019-04-23T04:00:03.743Z,998.29
2019-04-23T04:01:07.365Z,998.25
2019-04-23T04:02:19.678Z,998.24
2019-04-23T04:04:31.216Z,998.27
2019-04-23T04:05:45.447Z,998.26
2019-04-23T04:08:56.027Z,998.30
2019-04-23T04:11:14.641Z,998.29
2019-04-23T04:12:16.614Z,998.37
2019-04-23T04:13:20.066Z,998.36
2019-04-23T04:14:33.872Z,998.31
2019-04-23T04:15:46.656Z,998.32
2019-04-23T04:16:34.212Z,998.27
2019-04-23T04:17:35.948Z,998.31
2019-04-23T04:21:09.499Z,998.32
2019-04-23T04:22:11.420Z,998.32
2019-04-23T04:23:24.237Z,998.37
2019-04-23T04:25:33.766Z,998.37
2019-04-23T04:27:45.743Z,998.45
2019-04-23T04:29:00.031Z,998.37
2019-04-23T04:29:51.874Z,998.38
2019-04-23T04:30:53.891Z,998.38
2019-04-23T04:32:22.030Z,998.40
2019-04-23T04:33:33.964Z,998.40
2019-04-23T04:35:42.189Z,998.46
2019-04-23T04:37:57.349Z,998.46
2019-04-23T04:41:03.012Z,998.39
2019-04-23T04:43:22.408Z,998.36
2019-04-23T04:46:39.803Z,998.36
2019-04-23T04:48:49.219Z,998.33
2019-04-23T04:51:14.939Z,998.35
2019-04-23T04:52:21.921Z,998.33
2019-04-23T04:53:23.286Z,998.21
2019-04-23T04:54:18.903Z,998.29
2019-04-23T04:55:28.383Z,998.36
2019-04-23T04:57:39.983Z,998.26
2019-04-23T04:58:56.450Z,998.24
2019-04-23T05:00:01.704Z,998.22
2019-04-23T05:02:25.742Z,998.24
2019-04-23T05:04:30.774Z,998.22
2019-04-23T05:06:39.140Z,998.29
2019-04-23T05:08:51.154Z,998.27
2019-04-23T05:11:02.104Z,998.30
2019-04-23T05:13:33.897Z,998.31
2019-04-23T05:14:13.039Z,998.29
2019-04-23T05:15:18.791Z,998.19
2019-04-23T05:16:27.807Z,998.22
2019-04-23T05:17:42.541Z,998.26
2019-04-23T05:18:47.424Z,998.23
2019-04-23T05:20:58.199Z,998.19
2019-04-23T05:23:16.547Z,998.19
2019-04-23T05:24:08.862Z,998.17
2019-04-23T05:25:12.323Z,998.17
2019-04-23T05:27:37.276Z,998.08
2019-04-23T05:28:44.552Z,998.09
2019-04-23T05:29:46.598Z,998.07
2019-04-23T05:30:51.550Z,998.09
2019-04-23T05:31:52.954Z,997.98
2019-04-23T05:33:11.884Z,998.04
2019-04-23T05:34:11.903Z,997.99
2019-04-23T05:36:37.431Z,998.10
2019-04-23T05:37:56.855Z,998.05
2019-04-23T05:38:50.435Z,998.11
2019-04-23T05:40:22.389Z,998.00
2019-04-23T05:41:03.737Z,998.05
2019-04-23T05:41:58.493Z,997.98
2019-04-23T05:43:12.400Z,998.03
2019-04-23T05:44:21.651Z,998.07
2019-04-23T05:45:21.723Z,998.02
2019-04-23T05:46:33.161Z,998.01
2019-04-23T05:47:35.671Z,998.08
2019-04-23T05:48:49.269Z,998.04
2019-04-23T05:49:51.955Z,998.02
2019-04-23T05:51:58.934Z,997.99
2019-04-23T05:53:11.496Z,997.93
2019-04-23T05:54:22.064Z,998.06
2019-04-23T05:55:18.701Z,997.99
2019-04-23T05:56:27.830Z,998.05
2019-04-23T05:57:36.260Z,998.04
2019-04-23T05:58:46.989Z,997.94
2019-04-23T05:59:48.474Z,997.95
2019-04-23T06:01:05.785Z,997.96
2019-04-23T06:03:11.985Z,998.00
2019-04-23T06:04:17.567Z,997.91
2019-04-23T06:05:30.951Z,997.97
2019-04-23T06:06:37.931Z,997.81
2019-04-23T06:07:35.777Z,997.85
2019-04-23T06:08:47.245Z,997.88
2019-04-23T06:09:56.326Z,997.84
2019-04-23T06:11:10.176Z,997.84
2019-04-23T06:11:59.767Z,997.89
2019-04-23T06:13:12.359Z,997.99
2019-04-23T06:14:35.279Z,997.89
2019-04-23T06:15:25.333Z,997.87
2019-04-23T06:17:29.672Z,997.94
2019-04-23T06:18:44.737Z,997.90
2019-04-23T06:19:52.584Z,997.92
2019-04-23T06:20:59.045Z,997.86
2019-04-23T06:22:11.191Z,997.88
2019-04-23T06:23:19.061Z,997.91
2019-04-23T06:24:23.046Z,997.89
2019-04-23T06:26:40.110Z,997.85
2019-04-23T06:27:32.040Z,997.87
2019-04-23T06:28:40.352Z,997.86
2019-04-23T06:29:43.145Z,997.86
2019-04-23T06:30:54.384Z,997.82
2019-04-23T06:32:14.915Z,997.82
2019-04-23T06:33:05.846Z,997.80
2019-04-23T06:34:20.214Z,997.82
2019-04-23T06:35:16.661Z,997.82
2019-04-23T06:36:30.732Z,997.81
2019-04-23T06:38:00.015Z,997.78
2019-04-23T06:38:49.643Z,997.84
2019-04-23T06:40:59.570Z,997.74
2019-04-23T06:43:05.387Z,997.70
2019-04-23T06:44:32.181Z,997.73
2019-04-23T06:45:15.885Z,997.66
2019-04-23T06:46:29.097Z,997.67
2019-04-23T06:47:24.844Z,997.70
2019-04-23T06:48:33.830Z,997.73
2019-04-23T06:49:49.484Z,997.64
2019-04-23T06:52:14.727Z,997.66
2019-04-23T06:53:02.029Z,997.58
2019-04-23T06:54:15.127Z,997.69
2019-04-23T06:55:18.430Z,997.57
2019-04-23T06:56:26.363Z,997.54
2019-04-23T06:57:41.236Z,997.57
2019-04-23T06:59:45.925Z,997.55
2019-04-23T07:00:48.018Z,997.57
2019-04-23T07:02:05.185Z,997.48
2019-04-23T07:03:00.908Z,997.48
2019-04-23T07:04:15.054Z,997.47
2019-04-23T07:05:15.828Z,997.43
2019-04-23T07:06:27.003Z,997.41
2019-04-23T07:08:42.989Z,997.47
2019-04-23T07:09:35.483Z,997.37
2019-04-23T07:10:49.461Z,997.41
2019-04-23T07:16:31.330Z,997.32
2019-04-23T07:17:35.042Z,997.37
2019-04-23T07:18:41.572Z,997.26
2019-04-23T07:19:50.149Z,997.30
2019-04-23T07:20:58.500Z,997.30
2019-04-23T07:22:08.225Z,997.32
2019-04-23T07:23:17.105Z,997.18
2019-04-23T07:27:31.762Z,997.25
2019-04-23T07:28:50.032Z,997.21
2019-04-23T07:31:05.503Z,997.13
2019-04-23T07:31:59.077Z,997.18
2019-04-23T07:33:11.929Z,997.12
2019-04-23T07:35:16.079Z,997.18
2019-04-23T07:36:29.534Z,997.11
2019-04-23T07:37:32.552Z,997.10
2019-04-23T07:38:47.436Z,997.01
2019-04-23T07:39:59.048Z,997.00
2019-04-23T07:40:58.747Z,996.93
2019-04-23T07:42:13.774Z,996.96
2019-04-23T07:43:09.086Z,996.95
2019-04-23T07:46:37.900Z,996.95
2019-04-23T07:47:36.379Z,996.98
2019-04-23T07:48:27.618Z,996.94
2019-04-23T07:49:52.247Z,996.86
2019-04-23T07:50:48.020Z,996.90
2019-04-23T07:52:03.497Z,996.81
2019-04-23T07:54:19.363Z,996.90
2019-04-23T07:55:25.499Z,996.81
2019-04-23T07:56:25.565Z,996.81
2019-04-23T07:57:30.547Z,996.80
2019-04-23T07:58:44.850Z,996.83
2019-04-23T07:59:50.243Z,996.69
2019-04-23T08:01:57.498Z,996.72
2019-04-23T08:03:13.550Z,996.77
2019-04-23T08:04:14.359Z,996.71
2019-04-23T08:05:22.518Z,996.69
2019-04-23T08:06:17.801Z,996.71
2019-04-23T08:07:29.723Z,996.70
2019-04-23T08:08:30.198Z,996.66
2019-04-23T08:10:02.348Z,996.62
2019-04-23T08:11:01.578Z,996.71
2019-04-23T08:12:04.802Z,996.67
2019-04-23T08:12:59.501Z,996.68
2019-04-23T08:14:03.572Z,996.73
2019-04-23T08:15:14.616Z,996.70
2019-04-23T08:16:34.309Z,996.67
2019-04-23T08:17:22.429Z,996.63
2019-04-23T08:18:41.462Z,996.64
2019-04-23T08:19:49.063Z,996.62
2019-04-23T08:21:58.249Z,996.67
2019-04-23T08:23:01.911Z,996.66
2019-04-23T08:25:14.373Z,996.57
2019-04-23T08:26:28.060Z,996.49
2019-04-23T08:27:25.019Z,996.52
2019-04-23T08:28:41.971Z,996.42
2019-04-23T08:29:45.884Z,996.38
2019-04-23T08:30:45.385Z,996.31
2019-04-23T08:31:52.759Z,996.40
2019-04-23T08:32:58.827Z,996.32
2019-04-23T08:34:23.945Z,996.29
2019-04-23T08:36:23.854Z,996.40
2019-04-23T08:37:27.002Z,996.32
2019-04-23T08:38:29.503Z,996.33
2019-04-23T08:39:38.629Z,996.28
2019-04-23T08:40:49.950Z,996.30
2019-04-23T08:42:09.761Z,996.29
2019-04-23T08:42:58.176Z,996.26
2019-04-23T08:44:09.229Z,996.29
2019-04-23T08:46:18.468Z,996.23
2019-04-23T08:47:31.875Z,996.22
2019-04-23T08:48:30.803Z,996.26
2019-04-23T08:50:38.398Z,996.07
2019-04-23T08:51:53.338Z,996.24
2019-04-23T08:53:00.170Z,996.15
2019-04-23T08:54:11.769Z,996.19
2019-04-23T08:55:28.691Z,996.16
2019-04-23T08:56:11.997Z,996.10
2019-04-23T08:57:31.890Z,996.09
2019-04-23T08:58:34.254Z,995.97
2019-04-23T08:59:38.766Z,995.93
2019-04-23T09:00:47.682Z,996.01
2019-04-23T09:02:10.447Z,995.96
2019-04-23T09:02:58.618Z,995.93
2019-04-23T09:04:00.793Z,995.88
2019-04-23T09:05:19.284Z,995.98
2019-04-23T09:06:15.960Z,995.83
2019-04-23T09:11:58.094Z,995.90
2019-04-23T09:13:09.089Z,995.88
2019-04-23T09:13:57.413Z,995.75
2019-04-23T09:15:09.984Z,995.79
2019-04-23T09:16:18.009Z,995.84
2019-04-23T09:18:26.226Z,995.78
2019-04-23T09:19:44.204Z,995.76
2019-04-23T09:21:49.707Z,995.72
2019-04-23T09:22:51.835Z,995.66
2019-04-23T09:23:56.191Z,995.67
2019-04-23T09:25:14.690Z,995.69
2019-04-23T09:26:06.191Z,995.65
2019-04-23T09:27:23.316Z,995.64
2019-04-23T09:28:34.871Z,995.57
2019-04-23T09:29:42.393Z,995.63
2019-04-23T09:30:38.785Z,995.62
2019-04-23T09:32:11.207Z,995.62
2019-04-23T09:32:51.606Z,995.59
2019-04-23T09:34:03.912Z,995.55
2019-04-23T09:35:14.430Z,995.39
2019-04-23T09:36:18.153Z,995.49
2019-04-23T09:37:19.486Z,995.54
2019-04-23T09:38:37.699Z,995.48
2019-04-23T09:40:50.410Z,995.46
2019-04-23T09:41:39.939Z,995.48
2019-04-23T09:42:54.370Z,995.49
2019-04-23T09:43:53.929Z,995.43
2019-04-23T09:46:12.303Z,995.37
2019-04-23T09:47:26.359Z,995.39
2019-04-23T09:48:18.312Z,995.33
2019-04-23T09:49:35.069Z,995.30
2019-04-23T09:50:38.379Z,995.29
2019-04-23T09:52:56.059Z,995.31
2019-04-23T09:53:56.291Z,995.46
2019-04-23T09:55:04.450Z,995.35
2019-04-23T09:56:01.100Z,995.34
2019-04-23T09:57:10.798Z,995.27
2019-04-23T09:58:15.473Z,995.23
2019-04-23T09:59:31.857Z,995.17
2019-04-23T10:00:38.069Z,995.18
2019-04-23T10:01:49.878Z,995.24
2019-04-23T10:02:33.997Z,995.18
2019-04-23T10:03:43.565Z,995.15
2019-04-23T10:04:48.692Z,995.19
2019-04-23T10:05:49.137Z,995.17
2019-04-23T10:07:02.045Z,995.26
2019-04-23T10:08:04.156Z,995.16
2019-04-23T10:09:02.667Z,995.16
2019-04-23T10:10:05.786Z,995.16
2019-04-23T10:11:07.424Z,995.23
2019-04-23T10:12:09.483Z,995.23
2019-04-23T10:13:11.520Z,995.23
2019-04-23T10:14:12.455Z,995.21
2019-04-23T10:15:21.711Z,995.19
2019-04-23T10:16:21.446Z,995.09
2019-04-23T10:17:24.497Z,995.11
2019-04-23T10:18:24.967Z,995.15
2019-04-23T10:19:26.733Z,995.02
2019-04-23T10:20:28.571Z,995.12
2019-04-23T10:21:29.442Z,995.00
2019-04-23T10:22:33.692Z,995.03
2019-04-23T10:23:35.024Z,995.00
2019-04-23T10:24:36.910Z,994.98
2019-04-23T10:25:38.333Z,995.01
2019-04-23T10:26:39.958Z,995.04
2019-04-23T10:27:41.297Z,994.86
2019-04-23T10:28:42.202Z,995.00
2019-04-23T10:29:43.673Z,994.87
2019-04-23T10:30:44.992Z,994.86
2019-04-23T10:31:45.983Z,994.87
2019-04-23T10:32:47.545Z,994.89
2019-04-23T10:33:48.352Z,994.85
2019-04-23T10:34:58.095Z,994.83
2019-04-23T10:36:02.704Z,994.83
2019-04-23T10:37:02.019Z,994.76
2019-04-23T10:38:06.634Z,994.79
2019-04-23T10:39:15.526Z,994.75
2019-04-23T10:40:22.679Z,994.83
2019-04-23T10:41:22.539Z,994.80
2019-04-23T10:42:25.435Z,994.72
2019-04-23T10:43:28.818Z,994.76
2019-04-23T10:44:32.777Z,994.66
2019-04-23T10:45:57.106Z,994.71
2019-04-23T10:47:10.874Z,994.77
2019-04-23T10:48:29.481Z,994.72
2019-04-23T10:50:35.536Z,994.76
2019-04-23T10:52:37.518Z,994.63
2019-04-23T10:53:56.247Z,994.57
2019-04-23T10:54:52.416Z,994.62
2019-04-23T10:56:18.525Z,994.60
2019-04-23T10:58:18.450Z,994.51
2019-04-23T10:59:19.761Z,994.57
2019-04-23T11:00:30.540Z,994.60
2019-04-23T11:01:39.156Z,994.54
2019-04-23T11:04:02.550Z,994.67
2019-04-23T11:08:11.896Z,994.66
2019-04-23T11:09:37.280Z,994.60
2019-04-23T11:10:23.876Z,994.53
2019-04-23T11:11:48.300Z,994.46
2019-04-23T11:12:42.406Z,994.46
2019-04-23T11:13:48.729Z,994.56
2019-04-23T11:14:57.927Z,994.50
2019-04-23T11:16:27.601Z,994.50
2019-04-23T11:17:30.345Z,994.51
2019-04-23T11:18:08.979Z,994.42
2019-04-23T11:19:25.818Z,994.50
2019-04-23T11:23:46.659Z,994.56
2019-04-23T11:24:48.893Z,994.46
2019-04-23T11:25:49.148Z,994.47
2019-04-23T11:27:09.592Z,994.50
2019-04-23T11:28:16.174Z,994.46
2019-04-23T11:29:21.053Z,994.44
2019-04-23T11:30:32.526Z,994.41
2019-04-23T11:32:47.057Z,994.42
2019-04-23T11:33:46.358Z,994.36
2019-04-23T11:35:06.883Z,994.40
2019-04-23T11:38:38.843Z,994.37
2019-04-23T11:39:32.429Z,994.44
2019-04-23T11:40:21.215Z,994.33
2019-04-23T11:41:32.389Z,994.29
2019-04-23T11:42:38.117Z,994.29
2019-04-23T11:43:39.488Z,994.37
2019-04-23T11:44:49.533Z,994.35
2019-04-23T11:46:01.130Z,994.28
2019-04-23T11:49:25.293Z,994.25
2019-04-23T11:50:27.795Z,994.36
2019-04-23T11:50:56.017Z,994.30
2019-04-23T11:52:51.574Z,994.28
2019-04-23T11:53:46.478Z,994.30
2019-04-23T11:54:43.550Z,994.30
2019-04-23T11:57:22.281Z,994.21
2019-04-23T11:59:15.824Z,994.22
2019-04-23T12:01:42.128Z,994.24
2019-04-23T12:02:38.927Z,994.24
2019-04-23T12:03:47.099Z,994.15
2019-04-23T12:04:57.655Z,994.20
2019-04-23T12:07:00.587Z,994.33
2019-04-23T12:08:09.692Z,994.24
2019-04-23T12:09:15.989Z,994.29
2019-04-23T12:10:22.261Z,994.30
2019-04-23T12:12:33.448Z,994.31
2019-04-23T12:13:56.519Z,994.18
2019-04-23T12:14:50.832Z,994.29
2019-04-23T12:15:53.943Z,994.34
2019-04-23T12:17:09.705Z,994.32
2019-04-23T12:18:05.298Z,994.32
2019-04-23T12:19:33.104Z,994.28
2019-04-23T12:20:34.601Z,994.30
2019-04-23T12:21:28.212Z,994.33
2019-04-23T12:23:40.603Z,994.22
2019-04-23T12:25:06.483Z,994.23
2019-04-23T12:25:49.875Z,994.29
2019-04-23T12:27:46.988Z,994.24
2019-04-23T12:29:16.990Z,994.31
2019-04-23T12:30:16.481Z,994.35
2019-04-23T12:31:26.697Z,994.24
2019-04-23T12:32:48.745Z,994.39
2019-04-23T12:33:43.999Z,994.37
2019-04-23T12:34:52.823Z,994.58
2019-04-23T12:35:42.339Z,994.46
2019-04-23T12:36:56.825Z,994.32
2019-04-23T12:38:03.323Z,994.44
2019-04-23T12:39:11.239Z,994.38
2019-04-23T12:40:24.991Z,994.33
2019-04-23T12:41:20.748Z,994.29
2019-04-23T12:43:27.470Z,994.35
2019-04-23T12:44:46.146Z,994.36
2019-04-23T12:45:57.851Z,994.33
2019-04-23T12:47:05.584Z,994.30
2019-04-23T12:48:11.280Z,994.35
2019-04-23T12:49:30.371Z,994.41
2019-04-23T12:51:36.564Z,994.15
2019-04-23T12:52:37.930Z,994.10
2019-04-23T12:53:37.724Z,994.14
2019-04-23T12:55:00.352Z,994.08
2019-04-23T12:58:09.904Z,994.06
2019-04-23T12:59:09.056Z,994.05
2019-04-23T13:01:22.616Z,994.13
2019-04-23T13:02:39.863Z,994.36
2019-04-23T13:04:43.641Z,994.15
2019-04-23T13:05:53.986Z,994.11
2019-04-23T13:06:56.308Z,994.05
2019-04-23T13:08:05.799Z,994.05
2019-04-23T13:09:19.510Z,994.19
2019-04-23T13:10:15.846Z,994.09
2019-04-23T13:11:23.318Z,993.94
2019-04-23T13:12:37.734Z,993.95
2019-04-23T13:13:37.609Z,993.96
2019-04-23T13:14:51.062Z,994.08
2019-04-23T13:15:48.818Z,994.06
2019-04-23T13:17:02.651Z,994.00
2019-04-23T13:19:15.054Z,993.80
2019-04-23T13:20:19.411Z,993.69
2019-04-23T13:21:38.420Z,993.68
2019-04-23T13:22:37.339Z,993.88
2019-04-23T13:24:46.241Z,993.96
2019-04-23T13:25:47.308Z,993.92
2019-04-23T13:26:56.545Z,993.74
2019-04-23T13:29:19.940Z,993.91
2019-04-23T13:30:23.325Z,993.74
2019-04-23T13:31:20.368Z,993.88
2019-04-23T13:32:39.142Z,993.75
2019-04-23T13:34:58.567Z,993.80
2019-04-23T13:37:05.218Z,993.82
2019-04-23T13:38:09.335Z,993.82
2019-04-23T13:39:14.734Z,993.83
2019-04-23T13:40:24.371Z,993.78
2019-04-23T13:41:20.076Z,993.93
2019-04-23T13:42:43.026Z,993.76
2019-04-23T13:44:50.922Z,993.74
2019-04-23T13:47:00.547Z,993.68
2019-04-23T13:48:07.017Z,993.73
2019-04-23T13:49:12.175Z,993.72
2019-04-23T13:50:35.566Z,993.60
2019-04-23T13:53:42.607Z,993.65
2019-04-23T13:55:01.407Z,993.66
2019-04-23T13:55:49.923Z,993.71
2019-04-23T13:59:30.294Z,993.72
2019-04-23T14:00:22.516Z,993.63
2019-04-23T14:02:36.858Z,993.60
2019-04-23T14:03:40.712Z,993.55
2019-04-23T14:05:51.254Z,993.47
2019-04-23T14:07:10.714Z,993.36
2019-04-23T14:08:33.578Z,993.40
2019-04-23T14:09:19.985Z,993.28
2019-04-23T14:10:31.241Z,993.26
2019-04-23T14:12:41.561Z,993.27
2019-04-23T14:16:03.730Z,993.45
2019-04-23T14:17:08.782Z,993.51
2019-04-23T14:18:29.188Z,993.45
2019-04-23T14:19:30.177Z,993.45
2019-04-23T14:20:21.518Z,993.50
2019-04-23T14:21:37.685Z,993.51
2019-04-23T14:23:00.083Z,993.51
2019-04-23T14:24:04.608Z,993.47
2019-04-23T14:25:04.473Z,993.51
2019-04-23T14:26:10.826Z,993.39
2019-04-23T14:27:01.156Z,993.35
2019-04-23T14:29:13.201Z,993.48
2019-04-23T14:31:25.752Z,993.39
2019-04-23T14:33:46.965Z,993.45
2019-04-23T14:34:54.437Z,993.38
2019-04-23T14:35:56.376Z,993.36
2019-04-23T14:38:21.878Z,993.26
2019-04-23T14:39:24.088Z,993.42
2019-04-23T14:40:35.538Z,993.30
2019-04-23T14:41:53.956Z,993.36
2019-04-23T14:43:56.150Z,993.32
2019-04-23T14:45:13.567Z,993.23
2019-04-23T14:47:22.045Z,993.00
2019-04-23T14:48:27.995Z,993.00
2019-04-23T14:49:29.446Z,993.00
2019-04-23T14:52:53.918Z,992.89
2019-04-23T14:53:48.017Z,992.97
2019-04-23T14:55:36.216Z,992.89
2019-04-23T14:57:15.918Z,992.94
2019-04-23T14:59:13.405Z,992.84
2019-04-23T15:00:33.481Z,992.89
2019-04-23T15:01:49.785Z,992.76
2019-04-23T15:02:44.975Z,992.90
2019-04-23T15:03:50.579Z,992.75
2019-04-23T15:04:54.566Z,992.68
2019-04-23T15:06:15.793Z,992.72
2019-04-23T15:07:21.234Z,992.67
2019-04-23T15:08:25.240Z,992.71
2019-04-23T15:09:27.633Z,992.74
2019-04-23T15:10:42.281Z,992.78
2019-04-23T15:11:45.368Z,992.75
2019-04-23T15:12:46.246Z,992.74
2019-04-23T15:14:01.977Z,992.74
2019-04-23T15:15:21.252Z,992.69
2019-04-23T15:16:28.353Z,992.60
2019-04-23T15:17:34.073Z,992.67
2019-04-23T15:18:54.645Z,992.66
2019-04-23T15:21:26.116Z,992.66
2019-04-23T15:23:38.446Z,992.71
2019-04-23T15:24:22.982Z,992.83
2019-04-23T15:27:15.786Z,992.71
2019-04-23T15:27:29.590Z,992.69
2019-04-23T15:28:24.941Z,992.65
2019-04-23T15:29:38.719Z,992.71
2019-04-23T15:31:02.415Z,992.62
2019-04-23T15:35:29.535Z,992.67
2019-04-23T15:36:48.545Z,992.63
2019-04-23T15:39:58.868Z,992.61
2019-04-23T15:41:01.915Z,992.66
2019-04-23T15:42:16.787Z,992.50
2019-04-23T15:43:10.573Z,992.59
2019-04-23T15:44:13.656Z,992.57
2019-04-23T15:45:24.370Z,992.50
2019-04-23T15:47:45.316Z,992.50
2019-04-23T15:48:49.690Z,992.46
2019-04-23T15:49:57.413Z,992.55
2019-04-23T15:51:05.710Z,992.49
2019-04-23T15:52:06.248Z,992.46
2019-04-23T15:53:17.623Z,992.48
2019-04-23T15:54:22.535Z,992.45
2019-04-23T15:55:22.472Z,992.46
2019-04-23T15:56:35.758Z,992.46
2019-04-23T15:57:54.381Z,992.46
2019-04-23T15:58:56.073Z,992.47
2019-04-23T15:59:48.197Z,992.48
2019-04-23T16:01:06.091Z,992.47
2019-04-23T16:01:43.229Z,992.44
2019-04-23T16:02:44.258Z,992.42
2019-04-23T16:03:47.304Z,992.42
2019-04-23T16:04:51.096Z,992.45
2019-04-23T16:05:52.957Z,992.42
2019-04-23T16:06:54.012Z,992.35
2019-04-23T16:08:13.114Z,992.48
2019-04-23T16:09:28.486Z,992.44
2019-04-23T16:10:47.355Z,992.44
2019-04-23T16:12:56.729Z,992.48
2019-04-23T16:14:17.017Z,992.49
2019-04-23T16:15:06.513Z,992.59
2019-04-23T16:16:18.801Z,992.49
2019-04-23T16:18:37.170Z,992.58
2019-04-23T16:19:59.658Z,992.58
2019-04-23T16:20:58.608Z,992.56
2019-04-23T16:22:00.235Z,992.51
2019-04-23T16:22:51.408Z,992.46
2019-04-23T16:24:05.985Z,992.48
2019-04-23T16:25:12.796Z,992.51
2019-04-23T16:26:28.858Z,992.60
2019-04-23T16:27:17.003Z,992.51
2019-04-23T16:28:52.079Z,992.56
2019-04-23T16:30:40.800Z,992.48
2019-04-23T16:31:49.581Z,992.44
2019-04-23T16:33:03.712Z,992.37
2019-04-23T16:34:17.783Z,992.46
2019-04-23T16:35:17.951Z,992.37
2019-04-23T16:36:19.767Z,992.38
2019-04-23T16:37:22.100Z,992.41
2019-04-23T16:38:38.285Z,992.49
2019-04-23T16:39:31.427Z,992.45
2019-04-23T16:43:05.459Z,992.48
2019-04-23T16:44:09.425Z,992.41
2019-04-23T16:45:15.179Z,992.49
2019-04-23T16:46:21.479Z,992.51
2019-04-23T16:47:26.107Z,992.53
2019-04-23T16:48:40.663Z,992.59
2019-04-23T16:49:42.084Z,992.47
2019-04-23T16:51:04.756Z,992.41
2019-04-23T16:51:47.818Z,992.40
2019-04-23T16:53:09.191Z,992.42
2019-04-23T16:54:11.385Z,992.40
2019-04-23T16:55:19.316Z,992.42
2019-04-23T16:57:43.820Z,992.47
2019-04-23T17:00:07.450Z,992.42
2019-04-23T17:01:01.173Z,992.45
2019-04-23T17:01:50.433Z,992.40
2019-04-23T17:03:07.918Z,992.44
2019-04-23T17:04:11.702Z,992.41
2019-04-23T17:05:24.953Z,992.33
2019-04-23T17:06:15.876Z,992.39
2019-04-23T17:07:20.965Z,992.31
2019-04-23T17:09:42.680Z,992.37
2019-04-23T17:10:53.337Z,992.33
2019-04-23T17:14:33.899Z,992.33
2019-04-23T17:16:15.266Z,992.35
2019-04-23T17:16:59.825Z,992.34